Time;durP1;ratioP1;P1;durP2;ratioP2;P2;SDS_P1;SDS_P2;PMS_P1;PMS_P2;Temp;Humidity;BMP_temperature;BMP_pressure;BME280_temperature;BME280_humidity;BME280_pressure;Samples;Min_cycle;Max_cycle;Signal;HPM_P1;HPM_P2
2022/04/20 00:00:34;;;;;;;0.00;0.00;;;7.70;99.90;;;;;;5056266;28;20118;-63
2022/04/20 00:03:00;;;;;;;0.00;0.00;;;7.60;99.90;;;;;;5042019;28;20250;-63
2022/04/20 00:05:26;;;;;;;0.00;0.00;;;7.60;99.90;;;;;;5057190;28;20049;-64
2022/04/20 00:07:51;;;;;;;0.00;0.00;;;7.60;99.90;;;;;;5040490;28;20498;-63
2022/04/20 00:10:17;;;;;;;0.00;0.00;;;7.50;99.90;;;;;;5041568;28;20045;-66
2022/04/20 00:12:43;;;;;;;0.00;0.00;;;7.50;99.90;;;;;;5041885;28;20075;-64
2022/04/20 00:15:09;;;;;;;0.00;0.00;;;7.50;99.90;;;;;;5057126;28;20041;-64
2022/04/20 00:17:35;;;;;;;0.00;0.00;;;7.60;99.90;;;;;;5041162;28;20396;-66
2022/04/20 00:20:01;;;;;;;0.00;0.00;;;7.60;99.90;;;;;;5041901;28;20041;-66
2022/04/20 00:22:26;;;;;;;0.00;0.00;;;7.60;99.90;;;;;;5040562;28;20120;-66
2022/04/20 00:24:52;;;;;;;0.00;0.00;;;7.60;99.90;;;;;;5041089;28;20583;-67
2022/04/20 00:27:18;;;;;;;0.00;0.00;;;7.70;99.90;;;;;;5040996;28;20040;-65
2022/04/20 00:29:43;;;;;;;0.00;0.00;;;7.70;99.90;;;;;;5041493;28;20033;-66
2022/04/20 00:32:09;;;;;;;0.00;0.00;;;8.60;99.90;;;;;;5041265;28;20480;-65
2022/04/20 00:34:35;;;;;;;0.00;0.00;;;7.70;99.90;;;;;;5040534;28;20087;-65
2022/04/20 00:37:01;;;;;;;0.00;0.00;;;7.70;99.90;;;;;;5040617;28;20053;-65
2022/04/20 00:39:26;;;;;;;0.00;0.00;;;7.60;99.90;;;;;;5056051;28;20671;-65
2022/04/20 00:41:52;;;;;;;0.00;0.00;;;7.50;99.90;;;;;;5041469;28;20518;-66
2022/04/20 00:44:20;;;;;;;0.00;0.00;;;7.50;99.90;;;;;;5040119;28;20045;-64
2022/04/20 00:46:47;;;;;;;0.00;0.00;;;7.50;99.90;;;;;;5051428;28;20111;-65
2022/04/20 00:49:14;;;;;;;0.00;0.00;;;7.50;99.90;;;;;;5041927;28;20036;-65
2022/04/20 00:51:53;;;;;;;0.00;0.00;;;7.50;99.90;;;;;;5039644;28;20037;-66
2022/04/20 00:54:20;;;;;;;0.00;0.00;;;7.50;99.90;;;;;;5055864;28;20098;-65
2022/04/20 00:56:45;;;;;;;0.00;0.00;;;7.40;99.90;;;;;;5041146;28;20340;-66
2022/04/20 00:59:12;;;;;;;0.00;0.00;;;7.40;99.90;;;;;;5038935;28;20041;-65
2022/04/20 01:01:38;;;;;;;0.00;0.00;;;7.40;99.90;;;;;;5041020;28;20053;-65
2022/04/20 01:04:04;;;;;;;0.00;0.00;;;7.30;99.90;;;;;;5040561;28;20049;-65
2022/04/20 01:06:29;;;;;;;0.00;0.00;;;7.30;99.90;;;;;;5039536;28;20539;-67
2022/04/20 01:08:55;;;;;;;0.00;0.00;;;7.20;99.90;;;;;;5055971;28;20040;-66
2022/04/20 01:11:22;;;;;;;0.00;0.00;;;7.10;99.90;;;;;;5040292;28;20053;-66
2022/04/20 01:13:48;;;;;;;0.00;0.00;;;7.10;99.90;;;;;;5040019;28;20048;-66
2022/04/20 01:16:13;;;;;;;0.00;0.00;;;7.00;99.90;;;;;;5039658;28;20048;-64
2022/04/20 01:18:43;;;;;;;0.00;0.00;;;6.70;99.90;;;;;;5041298;28;20049;-65
2022/04/20 01:21:12;;;;;;;0.00;0.00;;;6.90;99.90;;;;;;5040430;28;20059;-65
2022/04/20 01:23:38;;;;;;;0.00;0.00;;;6.90;99.90;;;;;;5040741;28;20288;-65
2022/04/20 01:26:08;;;;;;;0.00;0.00;;;6.90;99.90;;;;;;5040545;28;20051;-64
2022/04/20 01:28:41;;;;;;;0.00;0.00;;;6.90;99.90;;;;;;5040142;28;20607;-66
2022/04/20 01:31:07;;;;;;;0.00;0.00;;;6.90;99.90;;;;;;5040342;28;20041;-65
2022/04/20 01:33:33;;;;;;;0.00;0.00;;;6.80;99.90;;;;;;5040158;28;20606;-66
2022/04/20 01:35:59;;;;;;;0.00;0.00;;;6.80;99.90;;;;;;5040052;28;20499;-65
2022/04/20 01:38:26;;;;;;;0.00;0.00;;;6.80;99.90;;;;;;5040205;28;20080;-65
2022/04/20 01:40:52;;;;;;;0.00;0.00;;;6.70;99.90;;;;;;5040272;28;20057;-66
2022/04/20 01:43:18;;;;;;;0.00;0.00;;;6.70;99.90;;;;;;5038813;28;20044;-65
2022/04/20 01:45:43;;;;;;;0.00;0.00;;;6.70;99.90;;;;;;5042677;28;20088;-65
2022/04/20 01:48:09;;;;;;;0.00;0.00;;;6.70;99.90;;;;;;5049735;28;20055;-65
2022/04/20 01:51:46;;;;;;;0.00;0.00;;;6.70;99.90;;;;;;5040332;28;20504;-66
2022/04/20 01:53:20;;;;;;;0.00;0.00;;;6.60;99.90;;;;;;5039939;28;20049;-65
2022/04/20 01:55:46;;;;;;;0.00;0.00;;;6.60;99.90;;;;;;5039742;28;20049;-65
2022/04/20 01:58:11;;;;;;;0.00;0.00;;;6.60;99.90;;;;;;5022487;28;20041;-65
2022/04/20 02:00:37;;;;;;;0.00;0.00;;;7.00;99.90;;;;;;5040743;28;20056;-65
2022/04/20 02:03:02;;;;;;;0.00;0.00;;;6.60;99.90;;;;;;5038880;28;20088;-65
2022/04/20 02:05:28;;;;;;;0.00;0.00;;;6.50;99.90;;;;;;5039449;28;20056;-65
2022/04/20 02:07:55;;;;;;;0.00;0.00;;;6.50;99.90;;;;;;5055470;28;20500;-65
2022/04/20 02:10:22;;;;;;;0.15;0.10;;;6.50;99.90;;;;;;5039853;28;20099;-65
2022/04/20 02:12:47;;;;;;;0.00;0.00;;;6.70;99.90;;;;;;5038039;28;20492;-65
2022/04/20 02:15:13;;;;;;;0.00;0.00;;;6.50;99.90;;;;;;5040013;28;20080;-66
2022/04/20 02:17:39;;;;;;;0.00;0.00;;;6.40;99.90;;;;;;5039361;28;20075;-65
2022/04/20 02:20:05;;;;;;;0.00;0.00;;;6.40;99.90;;;;;;5040671;28;20049;-65
2022/04/20 02:22:31;;;;;;;0.00;0.00;;;6.50;99.90;;;;;;5038467;28;20053;-65
2022/04/20 02:24:59;;;;;;;0.00;0.00;;;6.50;99.90;;;;;;5043557;28;20040;-66
2022/04/20 02:27:28;;;;;;;0.00;0.00;;;6.50;99.90;;;;;;5043279;28;20110;-65
2022/04/20 02:29:53;;;;;;;0.00;0.00;;;6.50;99.90;;;;;;5043474;28;20044;-65
2022/04/20 02:32:19;;;;;;;0.00;0.00;;;6.60;99.90;;;;;;5042960;28;20559;-66
2022/04/20 02:34:45;;;;;;;0.00;0.00;;;6.60;99.90;;;;;;5043777;28;20046;-66
2022/04/20 02:37:10;;;;;;;0.00;0.00;;;6.50;99.90;;;;;;5042998;28;20041;-63
2022/04/20 02:39:37;;;;;;;0.00;0.00;;;6.40;99.90;;;;;;5043019;28;20475;-65
2022/04/20 02:42:07;;;;;;;0.00;0.00;;;6.30;99.90;;;;;;5043546;28;20045;-67
2022/04/20 02:44:33;;;;;;;0.00;0.00;;;6.20;99.90;;;;;;5043131;28;20080;-65
2022/04/20 02:46:59;;;;;;;0.00;0.00;;;6.20;99.90;;;;;;5052676;28;20083;-66
2022/04/20 02:49:24;;;;;;;0.00;0.00;;;6.10;99.90;;;;;;5043241;28;20048;-66
2022/04/20 02:51:50;;;;;;;0.00;0.00;;;6.10;99.90;;;;;;5042434;28;20090;-65
2022/04/20 02:54:16;;;;;;;0.00;0.00;;;6.10;99.90;;;;;;5043112;28;20041;-65
2022/04/20 02:56:41;;;;;;;0.00;0.00;;;6.10;99.90;;;;;;5042628;28;20053;-66
2022/04/20 02:59:07;;;;;;;0.00;0.00;;;6.10;99.90;;;;;;5043897;28;20124;-66
2022/04/20 03:01:33;;;;;;;0.00;0.00;;;6.10;99.90;;;;;;5042776;28;20043;-66
2022/04/20 03:03:59;;;;;;;0.00;0.00;;;6.00;99.90;;;;;;5043102;28;20103;-65
2022/04/20 03:06:27;;;;;;;0.00;0.00;;;6.00;99.90;;;;;;5041453;28;20049;-66
2022/04/20 03:08:53;;;;;;;0.00;0.00;;;5.90;99.90;;;;;;5043144;28;20088;-67
2022/04/20 03:11:19;;;;;;;0.00;0.00;;;5.90;99.90;;;;;;5042372;28;20083;-67
2022/04/20 03:13:46;;;;;;;0.00;0.00;;;5.80;99.90;;;;;;5042607;28;20048;-66
2022/04/20 03:16:11;;;;;;;0.00;0.00;;;5.80;99.90;;;;;;5042434;28;20055;-65
2022/04/20 03:18:37;;;;;;;0.00;0.00;;;5.80;99.90;;;;;;5042959;28;20041;-66
2022/04/20 03:21:03;;;;;;;0.00;0.00;;;5.90;99.90;;;;;;5042237;28;20693;-66
2022/04/20 03:23:31;;;;;;;0.00;0.00;;;5.80;99.90;;;;;;5041800;28;20051;-65
2022/04/20 03:25:57;;;;;;;0.00;0.00;;;5.80;99.90;;;;;;5042662;28;20056;-65
2022/04/20 03:28:23;;;;;;;0.00;0.00;;;5.80;99.90;;;;;;5042234;28;20487;-66
2022/04/20 03:30:50;;;;;;;0.00;0.00;;;5.80;99.90;;;;;;5042086;28;20069;-66
2022/04/20 03:33:16;;;;;;;0.00;0.00;;;5.80;99.90;;;;;;5041985;28;20090;-65
2022/04/20 03:35:42;;;;;;;0.00;0.00;;;5.80;99.90;;;;;;5041269;28;20041;-65
2022/04/20 03:38:09;;;;;;;0.00;0.00;;;5.70;99.90;;;;;;5042982;28;20072;-65
2022/04/20 03:40:35;;;;;;;0.00;0.00;;;5.60;99.90;;;;;;5041572;28;20116;-66
2022/04/20 03:43:04;;;;;;;0.00;0.00;;;5.60;99.90;;;;;;5042215;28;20045;-65
2022/04/20 03:45:29;;;;;;;0.00;0.00;;;5.60;99.90;;;;;;5044190;28;20087;-66
2022/04/20 03:47:55;;;;;;;0.00;0.00;;;5.50;99.90;;;;;;5050450;28;20064;-65
2022/04/20 03:50:20;;;;;;;0.00;0.00;;;5.50;99.90;;;;;;5041883;28;20076;-66
2022/04/20 03:52:46;;;;;;;0.00;0.00;;;5.50;99.90;;;;;;5041435;28;20144;-65
2022/04/20 03:55:12;;;;;;;0.00;0.00;;;5.50;99.90;;;;;;5041950;28;20040;-65
2022/04/20 03:57:38;;;;;;;0.00;0.00;;;5.50;99.90;;;;;;5041708;28;20044;-66
2022/04/20 04:00:05;;;;;;;0.00;0.00;;;5.50;99.90;;;;;;5042179;28;20505;-65
2022/04/20 04:02:30;;;;;;;0.00;0.00;;;5.50;99.90;;;;;;5041722;28;20090;-66
2022/04/20 04:04:56;;;;;;;0.00;0.00;;;4.60;99.90;;;;;;5041154;28;20132;-66
2022/04/20 04:07:22;;;;;;;0.00;0.00;;;5.60;99.90;;;;;;5040527;28;20045;-65
2022/04/20 04:09:47;;;;;;;0.00;0.00;;;5.60;99.90;;;;;;5040523;28;20091;-65
2022/04/20 04:12:14;;;;;;;0.00;0.00;;;5.70;99.90;;;;;;5041158;28;20636;-65
2022/04/20 04:14:41;;;;;;;0.00;0.00;;;5.60;99.90;;;;;;5041441;28;20718;-63
2022/04/20 04:17:07;;;;;;;0.00;0.00;;;5.60;99.90;;;;;;5042110;28;20083;-66
2022/04/20 04:19:34;;;;;;;0.00;0.00;;;5.60;99.90;;;;;;5041375;28;20271;-65
2022/04/20 04:22:01;;;;;;;0.00;0.00;;;5.50;99.90;;;;;;5040906;28;20421;-67
2022/04/20 04:24:36;;;;;;;0.00;0.00;;;5.50;99.90;;;;;;5041235;28;21129;-65
2022/04/20 04:27:03;;;;;;;0.00;0.00;;;5.40;99.90;;;;;;5041288;28;20060;-66
2022/04/20 04:29:31;;;;;;;0.00;0.00;;;5.30;99.90;;;;;;5039035;28;20347;-67
2022/04/20 04:31:57;;;;;;;0.00;0.00;;;5.30;99.90;;;;;;5041276;28;20041;-66
2022/04/20 04:34:23;;;;;;;0.00;0.00;;;5.30;99.90;;;;;;5040863;28;20049;-66
2022/04/20 04:36:50;;;;;;;0.00;0.00;;;5.30;99.90;;;;;;5055902;28;20040;-65
2022/04/20 04:39:18;;;;;;;0.00;0.00;;;5.20;99.90;;;;;;5040168;28;20037;-64
2022/04/20 04:41:46;;;;;;;0.00;0.00;;;5.20;99.90;;;;;;5041331;28;20045;-66
2022/04/20 04:44:11;;;;;;;0.00;0.00;;;5.30;99.90;;;;;;5041175;28;20074;-64
2022/04/20 04:49:21;;;;;;;0.00;0.00;;;5.30;99.90;;;;;;5041057;28;20384;-64
2022/04/20 04:51:47;;;;;;;0.00;0.00;;;5.60;99.90;;;;;;5040563;28;20052;-64
2022/04/20 04:54:12;;;;;;;0.00;0.00;;;5.30;99.90;;;;;;5040166;28;20045;-64
2022/04/20 04:56:38;;;;;;;0.00;0.00;;;5.30;99.90;;;;;;5041063;28;20072;-65
2022/04/20 04:59:04;;;;;;;0.00;0.00;;;5.30;99.90;;;;;;5040976;28;20141;-65
2022/04/20 05:01:29;;;;;;;0.00;0.00;;;5.30;99.90;;;;;;5040505;28;20045;-65
2022/04/20 05:03:55;;;;;;;0.00;0.00;;;5.30;99.90;;;;;;5040289;28;20064;-65
2022/04/20 05:06:20;;;;;;;0.00;0.00;;;5.30;99.90;;;;;;5039683;28;20052;-64
2022/04/20 05:08:46;;;;;;;0.00;0.00;;;5.30;99.90;;;;;;5040939;28;20052;-66
2022/04/20 05:11:12;;;;;;;0.00;0.00;;;5.30;99.90;;;;;;5039733;28;20041;-64
2022/04/20 05:13:38;;;;;;;0.00;0.00;;;5.30;99.90;;;;;;5041111;28;20052;-65
2022/04/20 05:16:04;;;;;;;0.00;0.00;;;5.30;99.90;;;;;;5040686;28;20299;-65
2022/04/20 05:18:30;;;;;;;0.00;0.00;;;5.40;99.90;;;;;;5040720;28;20059;-64
2022/04/20 05:20:55;;;;;;;0.45;0.40;;;5.40;99.90;;;;;;5039714;28;20049;-65
2022/04/20 05:23:21;;;;;;;0.00;0.00;;;5.60;99.90;;;;;;5040402;28;20059;-66
2022/04/20 05:25:48;;;;;;;0.00;0.00;;;5.90;99.90;;;;;;5040616;28;20037;-65
2022/04/20 05:28:14;;;;;;;0.00;0.00;;;6.10;99.90;;;;;;5039741;28;20116;-64
2022/04/20 05:30:40;;;;;;;0.00;0.00;;;6.30;99.90;;;;;;5039568;28;20764;-62
2022/04/20 05:33:05;;;;;;;0.00;0.00;;;6.50;99.90;;;;;;5040910;28;20049;-65
2022/04/20 05:35:31;;;;;;;0.00;0.00;;;7.00;99.90;;;;;;5039247;28;20128;-66
2022/04/20 05:43:25;;;;;;;0.00;0.00;;;8.50;99.90;;;;;;5039479;28;20508;-64
2022/04/20 05:45:52;;;;;;;0.00;0.00;;;8.20;99.90;;;;;;5041643;28;20052;-65
2022/04/20 05:48:17;;;;;;;0.00;0.00;;;8.50;99.90;;;;;;5048512;28;20045;-65
2022/04/20 05:50:43;;;;;;;0.00;0.00;;;8.90;99.90;;;;;;5038880;28;20040;-65
2022/04/20 05:53:09;;;;;;;0.00;0.00;;;9.10;99.90;;;;;;5040737;28;20037;-65
2022/04/20 05:55:35;;;;;;;0.00;0.00;;;9.40;99.90;;;;;;5040698;28;20041;-64
2022/04/20 05:58:01;;;;;;;0.00;0.00;;;10.20;99.90;;;;;;5039072;28;20491;-64
2022/04/20 06:00:27;;;;;;;0.00;0.00;;;9.60;99.90;;;;;;5043333;28;20510;-65
2022/04/20 06:02:54;;;;;;;0.00;0.00;;;9.60;99.90;;;;;;5026216;28;20063;-65
2022/04/20 06:05:20;;;;;;;0.00;0.00;;;9.60;99.90;;;;;;5042892;28;20064;-64
2022/04/20 06:07:47;;;;;;;0.00;0.00;;;9.70;99.90;;;;;;5043633;28;20518;-65
2022/04/20 06:10:12;;;;;;;0.00;0.00;;;9.90;99.90;;;;;;5043994;28;20049;-65
2022/04/20 06:12:38;;;;;;;0.00;0.00;;;10.20;99.90;;;;;;5042912;28;20070;-65
2022/04/20 06:15:06;;;;;;;0.00;0.00;;;10.10;99.90;;;;;;5043991;28;20464;-65
2022/04/20 06:17:32;;;;;;;0.00;0.00;;;10.20;99.90;;;;;;5043231;28;20067;-65
2022/04/20 06:19:57;;;;;;;0.00;0.00;;;10.20;99.90;;;;;;5042832;28;20116;-65
2022/04/20 06:22:23;;;;;;;0.00;0.00;;;11.10;99.90;;;;;;5042735;28;20129;-66
2022/04/20 06:24:49;;;;;;;0.00;0.00;;;10.80;99.90;;;;;;5042543;28;20044;-64
2022/04/20 06:27:15;;;;;;;0.00;0.00;;;11.00;99.90;;;;;;5042697;28;20705;-64
2022/04/20 06:29:41;;;;;;;0.00;0.00;;;11.10;99.90;;;;;;5042665;28;20053;-65
2022/04/20 06:32:07;;;;;;;0.00;0.00;;;11.20;99.90;;;;;;5044192;28;20041;-65
2022/04/20 06:34:33;;;;;;;0.20;0.20;;;11.30;99.90;;;;;;5042663;28;20041;-64
2022/04/20 06:36:58;;;;;;;0.00;0.00;;;11.50;99.90;;;;;;5042841;28;20541;-64
2022/04/20 06:39:24;;;;;;;0.00;0.00;;;12.90;99.90;;;;;;5043059;28;20041;-65
2022/04/20 06:41:51;;;;;;;0.00;0.00;;;12.00;99.90;;;;;;5043330;28;20480;-64
2022/04/20 06:44:17;;;;;;;0.00;0.00;;;12.10;99.90;;;;;;5041075;28;20045;-64
2022/04/20 06:46:43;;;;;;;0.00;0.00;;;13.00;99.90;;;;;;5053148;28;20121;-64
2022/04/20 06:49:09;;;;;;;0.00;0.00;;;13.00;99.90;;;;;;5044926;28;20053;-64
2022/04/20 07:00:03;;;;;;;0.00;0.00;;;12.10;99.90;;;;;;5041564;28;20059;-64
2022/04/20 07:02:29;;;;;;;0.10;0.10;;;12.70;99.90;;;;;;5042008;28;20037;-63
2022/04/20 07:04:54;;;;;;;0.00;0.00;;;12.70;99.90;;;;;;5042831;28;20049;-64
2022/04/20 07:07:20;;;;;;;0.00;0.00;;;12.70;99.90;;;;;;5042348;28;20041;-64
2022/04/20 07:09:46;;;;;;;0.00;0.00;;;12.90;99.90;;;;;;5040252;28;20126;-65
2022/04/20 07:12:12;;;;;;;0.00;0.00;;;13.10;99.90;;;;;;5042344;28;20152;-64
2022/04/20 07:14:38;;;;;;;0.00;0.00;;;13.30;99.90;;;;;;5042799;28;20045;-65
2022/04/20 07:17:04;;;;;;;0.00;0.00;;;13.60;99.90;;;;;;5042648;28;20124;-64
2022/04/20 07:19:30;;;;;;;0.00;0.00;;;13.20;99.90;;;;;;5040580;28;20479;-66
2022/04/20 07:21:56;;;;;;;0.00;0.00;;;13.40;99.90;;;;;;5042112;28;20080;-67
2022/04/20 07:24:21;;;;;;;0.00;0.00;;;13.50;99.90;;;;;;5042575;28;20381;-64
2022/04/20 07:26:47;;;;;;;0.10;0.10;;;13.40;99.90;;;;;;5042788;28;20422;-63
2022/04/20 07:29:12;;;;;;;0.00;0.00;;;13.70;99.90;;;;;;5040768;28;20053;-62
2022/04/20 07:31:38;;;;;;;0.00;0.00;;;13.80;99.90;;;;;;5040914;28;20104;-63
2022/04/20 07:34:04;;;;;;;0.00;0.00;;;14.20;99.90;;;;;;5042861;28;20057;-63
2022/04/20 07:36:29;;;;;;;0.00;0.00;;;14.20;99.90;;;;;;5040734;28;20527;-63
2022/04/20 07:38:55;;;;;;;0.00;0.00;;;14.30;99.90;;;;;;5041318;28;20048;-64
2022/04/20 07:41:20;;;;;;;0.00;0.00;;;14.20;99.90;;;;;;5057251;28;20094;-63
2022/04/20 07:43:46;;;;;;;0.00;0.00;;;14.40;99.90;;;;;;5042696;28;20053;-64
2022/04/20 07:46:17;;;;;;;0.00;0.00;;;15.10;99.90;;;;;;5046903;28;20044;-63
2022/04/20 07:48:43;;;;;;;0.00;0.00;;;14.80;99.90;;;;;;5047021;28;20053;-62
2022/04/20 07:51:09;;;;;;;0.00;0.00;;;15.00;99.90;;;;;;5041908;28;20044;-63
2022/04/20 07:53:35;;;;;;;0.00;0.00;;;15.10;99.90;;;;;;5056765;28;20057;-62
2022/04/20 07:56:00;;;;;;;0.00;0.00;;;15.40;99.90;;;;;;5042439;28;20065;-63
2022/04/20 07:58:26;;;;;;;0.00;0.00;;;15.20;99.90;;;;;;5040116;28;20548;-57
2022/04/20 08:00:53;;;;;;;0.00;0.00;;;15.50;99.90;;;;;;5042000;28;20059;-65
2022/04/20 08:03:19;;;;;;;0.00;0.00;;;15.40;99.90;;;;;;5040823;28;20061;-64
2022/04/20 08:05:52;;;;;;;0.00;0.00;;;15.40;99.90;;;;;;5041048;28;20060;-65
2022/04/20 08:08:20;;;;;;;0.00;0.00;;;15.50;99.90;;;;;;5050920;28;20044;-65
2022/04/20 08:10:45;;;;;;;0.00;0.00;;;15.20;99.90;;;;;;5069605;28;20036;-65
2022/04/20 08:15:55;;;;;;;0.00;0.00;;;14.90;99.90;;;;;;5070138;28;20040;-65
2022/04/20 08:18:21;;;;;;;0.00;0.00;;;14.80;99.90;;;;;;5069272;28;20124;-64
2022/04/20 08:20:47;;;;;;;0.00;0.00;;;15.00;99.90;;;;;;5068867;28;20083;-64
2022/04/20 08:23:14;;;;;;;0.00;0.00;;;15.10;99.90;;;;;;5059773;28;20187;-64
2022/04/20 08:25:40;;;;;;;0.00;0.00;;;15.00;99.80;;;;;;5060769;28;20177;-63
2022/04/20 08:28:07;;;;;;;0.00;0.00;;;14.90;99.50;;;;;;5061547;28;20605;-65
2022/04/20 08:30:36;;;;;;;0.00;0.00;;;14.90;99.90;;;;;;5060804;28;20044;-66
2022/04/20 08:33:08;;;;;;;0.00;0.00;;;15.00;99.90;;;;;;5061408;28;20047;-64
2022/04/20 08:35:35;;;;;;;0.00;0.00;;;15.00;99.90;;;;;;5060495;28;20659;-65
2022/04/20 08:38:01;;;;;;;0.00;0.00;;;14.90;99.90;;;;;;5061528;28;20047;-66
2022/04/20 08:40:28;;;;;;;0.00;0.00;;;15.00;99.50;;;;;;5060548;28;20032;-65
2022/04/20 08:42:54;;;;;;;0.00;0.00;;;15.00;99.10;;;;;;5060638;28;20485;-65
2022/04/20 08:45:20;;;;;;;0.10;0.10;;;14.80;97.90;;;;;;5062717;28;20044;-64
2022/04/20 08:47:49;;;;;;;0.00;0.00;;;14.80;98.80;;;;;;5070671;28;20095;-65
2022/04/20 08:50:15;;;;;;;0.00;0.00;;;14.80;98.50;;;;;;5066752;28;20036;-65
2022/04/20 08:52:43;;;;;;;0.00;0.00;;;14.60;98.20;;;;;;5071630;28;20627;-65
2022/04/20 08:55:16;;;;;;;0.00;0.00;;;14.80;99.50;;;;;;5074246;28;20386;-64
2022/04/20 08:57:44;;;;;;;0.00;0.00;;;14.90;98.70;;;;;;5081052;28;20044;-64
2022/04/20 09:00:21;;;;;;;0.00;0.00;;;15.00;99.10;;;;;;5081199;28;20631;-63
2022/04/20 09:02:52;;;;;;;0.00;0.00;;;15.20;98.90;;;;;;5080990;28;20127;-63
2022/04/20 09:05:17;;;;;;;0.00;0.00;;;15.20;98.40;;;;;;5077583;28;20047;-63
2022/04/20 09:07:44;;;;;;;0.00;0.00;;;15.10;98.50;;;;;;5081063;28;20127;-63
2022/04/20 09:10:09;;;;;;;0.22;0.22;;;15.30;98.90;;;;;;5079780;28;20036;-63
2022/04/20 09:12:41;;;;;;;0.00;0.00;;;15.60;98.10;;;;;;5081088;28;20044;-63
2022/04/20 09:15:09;;;;;;;0.00;0.00;;;15.70;98.60;;;;;;5080992;28;20063;-63
2022/04/20 09:17:46;;;;;;;0.00;0.00;;;15.60;98.30;;;;;;5080253;28;20131;-63
2022/04/20 09:20:19;;;;;;;0.00;0.00;;;15.80;99.10;;;;;;5079280;28;20454;-63
2022/04/20 09:23:03;;;;;;;0.00;0.00;;;15.60;97.00;;;;;;5079237;28;20058;-63
2022/04/20 09:25:37;;;;;;;0.00;0.00;;;15.70;97.80;;;;;;5079430;28;20282;-63
2022/04/20 09:28:07;;;;;;;0.00;0.00;;;15.60;97.20;;;;;;5080575;28;20106;-63
2022/04/20 09:30:35;;;;;;;0.00;0.00;;;16.00;98.60;;;;;;5079845;28;20052;-63
2022/04/20 09:33:02;;;;;;;0.55;0.30;;;16.20;98.50;;;;;;5079641;28;20513;-63
2022/04/20 09:35:29;;;;;;;0.00;0.00;;;16.40;98.10;;;;;;5083569;28;20057;-63
2022/04/20 09:38:06;;;;;;;0.00;0.00;;;16.50;96.80;;;;;;5084480;28;20043;-62
2022/04/20 09:40:39;;;;;;;0.00;0.00;;;16.40;96.80;;;;;;5083511;28;20067;-63
2022/04/20 09:43:12;;;;;;;0.00;0.00;;;16.50;96.00;;;;;;5084989;28;20036;-65
2022/04/20 09:45:38;;;;;;;0.00;0.00;;;16.60;97.30;;;;;;5072121;28;20446;-64
2022/04/20 09:51:13;;;;;;;0.00;0.00;;;16.70;95.60;;;;;;5042632;28;20049;-63
2022/04/20 09:53:41;;;;;;;0.00;0.00;;;16.80;96.50;;;;;;5044751;28;20048;-62
2022/04/20 09:56:24;;;;;;;0.00;0.00;;;16.80;96.10;;;;;;5044238;28;20032;-63
2022/04/20 09:58:59;;;;;;;0.00;0.00;;;17.30;97.30;;;;;;5043573;28;20048;-63
2022/04/20 10:01:35;;;;;;;0.00;0.00;;;17.60;97.90;;;;;;5043751;28;20041;-63
2022/04/20 10:04:06;;;;;;;0.00;0.00;;;17.50;96.50;;;;;;5043407;28;20049;-64
2022/04/20 10:06:32;;;;;;;0.00;0.00;;;17.40;96.70;;;;;;5042703;28;20041;-63
2022/04/20 10:08:58;;;;;;;0.00;0.00;;;17.60;96.70;;;;;;5042486;28;20048;-63
2022/04/20 10:11:25;;;;;;;0.00;0.00;;;17.70;96.40;;;;;;5042366;28;20507;-63
2022/04/20 10:16:52;;;;;;;0.00;0.00;;;17.90;96.70;;;;;;5043164;28;20120;-63
2022/04/20 10:19:28;;;;;;;0.00;0.00;;;17.60;95.50;;;;;;5042233;28;20052;-62
2022/04/20 10:21:55;;;;;;;0.00;0.00;;;17.80;95.60;;;;;;5043447;28;20045;-63
2022/04/20 10:24:25;;;;;;;0.00;0.00;;;17.90;95.80;;;;;;5042365;28;20454;-63
2022/04/20 10:26:52;;;;;;;0.00;0.00;;;18.00;95.10;;;;;;5043311;28;20155;-63
2022/04/20 10:29:25;;;;;;;0.00;0.00;;;18.10;95.70;;;;;;5024877;28;20076;-62
2022/04/20 10:32:00;;;;;;;0.00;0.00;;;18.30;95.10;;;;;;5042468;28;20462;-63
2022/04/20 10:34:26;;;;;;;0.00;0.00;;;18.30;95.70;;;;;;5042183;28;20061;-64
2022/04/20 10:36:59;;;;;;;0.00;0.00;;;18.50;95.50;;;;;;5043529;28;20051;-63
2022/04/20 10:39:27;;;;;;;0.00;0.00;;;18.60;94.20;;;;;;5042567;28;20495;-62
2022/04/20 10:42:27;;;;;;;0.00;0.00;;;18.50;94.60;;;;;;5060881;28;20120;-63
2022/04/20 10:45:05;;;;;;;0.00;0.00;;;18.80;94.70;;;;;;5030633;28;20095;-62
2022/04/20 10:47:32;;;;;;;0.00;0.00;;;18.80;94.70;;;;;;5047361;28;20527;-62
2022/04/20 10:50:16;;;;;;;0.00;0.00;;;18.60;94.60;;;;;;5057855;28;20032;-64
2022/04/20 10:52:46;;;;;;;0.00;0.00;;;18.80;95.00;;;;;;5062444;28;20056;-64
2022/04/20 10:55:12;;;;;;;0.00;0.00;;;18.90;95.10;;;;;;5062300;28;20058;-63
2022/04/20 10:57:39;;;;;;;0.10;0.10;;;19.20;94.50;;;;;;5062669;28;20044;-64
2022/04/20 11:00:20;;;;;;;0.00;0.00;;;18.80;93.40;;;;;;5065442;28;20086;-63
2022/04/20 11:03:05;;;;;;;0.00;0.00;;;18.90;93.80;;;;;;5072227;28;20073;-63
2022/04/20 11:05:32;;;;;;;0.00;0.00;;;19.10;94.00;;;;;;5069475;28;20048;-63
2022/04/20 11:08:12;;;;;;;0.00;0.00;;;19.30;94.70;;;;;;5077315;28;20440;-65
2022/04/20 11:18:38;;;;;;;0.00;0.00;;;19.00;93.70;;;;;;5082710;28;20083;-64
2022/04/20 11:19:13;;;;;;;0.00;0.00;;;18.80;93.90;;;;;;5078307;28;20645;-65
2022/04/20 11:21:53;;;;;;;0.00;0.00;;;18.80;93.60;;;;;;5066768;28;20036;-63
2022/04/20 11:24:29;;;;;;;0.00;0.00;;;18.50;93.60;;;;;;5060538;28;20049;-65
2022/04/20 11:26:55;;;;;;;0.00;0.00;;;18.40;93.80;;;;;;5061464;28;20045;-65
2022/04/20 11:29:24;;;;;;;0.00;0.00;;;18.50;95.60;;;;;;5061386;28;20067;-63
2022/04/20 11:32:00;;;;;;;0.00;0.00;;;18.60;94.60;;;;;;5060891;28;20051;-64
2022/04/20 11:34:28;;;;;;;0.00;0.00;;;18.70;94.10;;;;;;5060383;28;20043;-63
2022/04/20 11:36:57;;;;;;;0.00;0.00;;;18.60;93.40;;;;;;5062276;28;20411;-63
2022/04/20 11:39:25;;;;;;;0.00;0.00;;;18.70;93.50;;;;;;5060242;28;20036;-63
2022/04/20 11:41:55;;;;;;;0.00;0.00;;;18.80;94.70;;;;;;5061563;28;20258;-64
2022/04/20 11:44:24;;;;;;;0.00;0.00;;;19.10;95.10;;;;;;5060413;28;20119;-63
2022/04/20 11:46:51;;;;;;;0.00;0.00;;;18.80;93.70;;;;;;5053702;28;20045;-64
2022/04/20 11:49:18;;;;;;;0.00;0.00;;;18.50;94.00;;;;;;5069904;28;20076;-61
2022/04/20 11:51:57;;;;;;;0.00;0.00;;;18.40;95.20;;;;;;5081530;28;20040;-61
2022/04/20 11:54:24;;;;;;;0.00;0.00;;;18.80;95.70;;;;;;5080553;28;20085;-63
2022/04/20 11:56:50;;;;;;;0.00;0.00;;;18.70;95.20;;;;;;5081060;28;20040;-63
2022/04/20 11:59:21;;;;;;;0.00;0.00;;;18.90;94.90;;;;;;5081136;28;20055;-62
2022/04/20 12:01:47;;;;;;;0.00;0.00;;;19.00;95.10;;;;;;5081107;28;20032;-64
2022/04/20 12:04:13;;;;;;;0.00;0.00;;;19.00;95.40;;;;;;5080023;28;20067;-67
2022/04/20 12:06:59;;;;;;;0.00;0.00;;;18.80;93.90;;;;;;5080280;28;20052;-65
2022/04/20 12:09:27;;;;;;;0.00;0.00;;;19.00;95.40;;;;;;5080942;28;20052;-64
2022/04/20 12:12:05;;;;;;;0.00;0.00;;;19.10;95.10;;;;;;5080925;28;20036;-64
2022/04/20 12:14:37;;;;;;;0.00;0.00;;;18.80;94.10;;;;;;5080023;28;20062;-62
2022/04/20 12:17:07;;;;;;;0.00;0.00;;;18.90;95.80;;;;;;5081226;28;20071;-62
2022/04/20 12:19:33;;;;;;;0.00;0.00;;;18.70;94.50;;;;;;5079959;28;20051;-63
2022/04/20 12:22:21;;;;;;;0.00;0.00;;;18.70;95.30;;;;;;5081163;28;20036;-62
2022/04/20 12:24:48;;;;;;;0.00;0.00;;;18.60;95.00;;;;;;5062479;28;20086;-62
2022/04/20 12:27:22;;;;;;;0.05;0.05;;;18.70;95.40;;;;;;5068147;28;20376;-62
2022/04/20 12:29:55;;;;;;;0.00;0.00;;;19.00;96.00;;;;;;5081033;28;20072;-64
2022/04/20 12:32:30;;;;;;;0.00;0.00;;;18.90;95.50;;;;;;5080051;28;20050;-63
2022/04/20 12:35:01;;;;;;;0.00;0.00;;;19.00;96.10;;;;;;5079496;28;20086;-64
2022/04/20 12:37:29;;;;;;;0.00;0.00;;;18.80;96.20;;;;;;5080566;28;20047;-63
2022/04/20 12:39:55;;;;;;;0.22;0.10;;;18.80;97.00;;;;;;5065855;28;20574;-63
2022/04/20 12:42:21;;;;;;;0.00;0.00;;;18.90;96.80;;;;;;5059689;28;20128;-63
2022/04/20 12:44:54;;;;;;;0.00;0.00;;;18.80;96.80;;;;;;5060215;28;20132;-63
2022/04/20 12:47:22;;;;;;;0.00;0.00;;;18.60;96.80;;;;;;5051211;28;20095;-64
2022/04/20 12:49:48;;;;;;;0.10;0.00;;;18.80;97.70;;;;;;5038625;28;20143;-64
2022/04/20 12:52:27;;;;;;;0.00;0.00;;;18.50;96.20;;;;;;5039679;28;20467;-64
2022/04/20 12:54:54;;;;;;;0.00;0.00;;;18.80;97.10;;;;;;5039238;28;20418;-65
2022/04/20 13:03:03;;;;;;;0.00;0.00;;;18.80;96.40;;;;;;5039337;28;20488;-64
2022/04/20 13:05:29;;;;;;;0.00;0.00;;;18.70;96.20;;;;;;5041534;28;20087;-64
2022/04/20 13:07:55;;;;;;;0.00;0.00;;;18.80;96.80;;;;;;5044323;28;20057;-65
2022/04/20 13:10:22;;;;;;;0.00;0.00;;;18.80;97.30;;;;;;5043819;28;20041;-64
2022/04/20 13:12:54;;;;;;;0.00;0.00;;;18.80;97.60;;;;;;5044926;28;20117;-63
2022/04/20 13:15:21;;;;;;;0.00;0.00;;;18.70;97.50;;;;;;5044576;28;20041;-63
2022/04/20 13:17:47;;;;;;;0.00;0.00;;;18.90;98.10;;;;;;5044694;28;20447;-63
2022/04/20 13:20:14;;;;;;;0.00;0.00;;;19.00;98.20;;;;;;5044232;28;20045;-63
2022/04/20 13:22:40;;;;;;;0.00;0.00;;;18.90;97.30;;;;;;5046095;28;20084;-63
2022/04/20 13:27:56;;;;;;;0.00;0.00;;;19.00;97.50;;;;;;5044375;28;20044;-64
2022/04/20 13:30:24;;;;;;;0.00;0.00;;;19.00;98.40;;;;;;5044378;28;20037;-63
2022/04/20 13:32:50;;;;;;;0.00;0.00;;;18.90;98.10;;;;;;5042961;28;20048;-64